createdAt,value
2018-07-06T00:02:15.425Z,1.45
2018-07-06T00:04:55.802Z,1.30
2018-07-06T00:07:35.965Z,1.40
2018-07-06T00:10:16.144Z,1.85
2018-07-06T00:12:56.342Z,1.60
2018-07-06T00:15:36.449Z,1.20
2018-07-06T00:18:16.612Z,1.20
2018-07-06T00:20:56.880Z,1.37
2018-07-06T00:23:37.068Z,1.20
2018-07-06T00:26:17.316Z,2.05
2018-07-06T00:28:57.575Z,1.80
2018-07-06T00:31:37.776Z,1.75
2018-07-06T00:34:17.976Z,1.77
2018-07-06T00:36:58.107Z,1.65
2018-07-06T00:39:38.311Z,1.42
2018-07-06T00:42:18.551Z,1.75
2018-07-06T00:44:58.742Z,1.00
2018-07-06T00:47:38.920Z,1.02
2018-07-06T00:50:19.148Z,1.30
2018-07-06T00:52:59.430Z,1.40
2018-07-06T00:55:33.616Z,1.40
2018-07-06T00:58:13.801Z,1.30
2018-07-06T01:00:53.983Z,1.60
2018-07-06T01:03:34.156Z,1.10
2018-07-06T01:06:14.324Z,1.30
2018-07-06T01:08:54.588Z,1.47
2018-07-06T01:11:34.652Z,1.30
2018-07-06T01:14:14.864Z,1.42
2018-07-06T01:16:55.063Z,1.10
2018-07-06T01:19:35.373Z,1.55
2018-07-06T01:22:15.616Z,1.30
2018-07-06T01:24:55.719Z,1.40
2018-07-06T01:27:35.943Z,1.37
2018-07-06T01:30:16.168Z,1.55
2018-07-06T01:32:50.482Z,1.40
2018-07-06T01:35:30.447Z,1.80
2018-07-06T01:38:04.667Z,1.50
2018-07-06T01:40:44.899Z,1.22
2018-07-06T01:43:25.144Z,1.45
2018-07-06T01:46:05.384Z,1.40
2018-07-06T01:48:45.649Z,1.85
2018-07-06T01:51:25.747Z,1.72
2018-07-06T01:54:05.951Z,1.70
2018-07-06T01:56:46.096Z,1.40
2018-07-06T01:59:26.260Z,1.70
2018-07-06T02:02:06.552Z,1.22
2018-07-06T02:04:46.759Z,1.57
2018-07-06T02:07:26.883Z,1.62
2018-07-06T02:10:07.160Z,1.52
2018-07-06T02:12:47.339Z,1.60
2018-07-06T02:15:27.873Z,1.60
2018-07-06T02:18:08.096Z,1.55
2018-07-06T02:20:48.376Z,1.77
2018-07-06T02:23:28.676Z,1.47
2018-07-06T02:26:08.783Z,1.57
2018-07-06T02:28:48.938Z,1.90
2018-07-06T02:31:29.220Z,2.00
2018-07-06T02:34:09.464Z,1.70
2018-07-06T02:36:49.937Z,1.35
2018-07-06T02:39:30.243Z,2.40
2018-07-06T02:42:10.438Z,1.75
2018-07-06T02:44:50.632Z,2.10
2018-07-06T02:47:30.703Z,2.30
2018-07-06T02:50:10.893Z,2.17
2018-07-06T02:52:51.216Z,2.17
2018-07-06T02:55:31.509Z,2.25
2018-07-06T02:58:11.625Z,3.02
2018-07-06T03:00:51.892Z,2.00
2018-07-06T03:03:32.187Z,2.20
2018-07-06T03:06:12.419Z,2.55
2018-07-06T03:08:52.691Z,2.40
2018-07-06T03:11:32.775Z,2.65
2018-07-06T03:14:12.852Z,2.65
2018-07-06T03:16:53.157Z,2.62
2018-07-06T03:19:33.396Z,3.02
2018-07-06T03:22:13.588Z,3.30
2018-07-06T03:24:53.985Z,3.20
2018-07-06T03:27:34.316Z,3.00
2018-07-06T03:30:14.491Z,3.10
2018-07-06T03:32:54.687Z,3.17
2018-07-06T03:35:34.928Z,3.30
2018-07-06T03:38:15.252Z,3.35
2018-07-06T03:40:55.509Z,4.33
2018-07-06T03:43:35.691Z,3.67
2018-07-06T03:46:15.923Z,3.50
2018-07-06T03:48:56.069Z,2.90
2018-07-06T03:51:36.265Z,3.47
2018-07-06T03:54:16.465Z,4.28
2018-07-06T03:56:56.492Z,3.35
2018-07-06T03:59:36.693Z,3.70
2018-07-06T04:02:16.861Z,4.05
2018-07-06T04:04:56.988Z,3.90
2018-07-06T04:07:37.060Z,3.92
2018-07-06T04:10:17.348Z,3.47
2018-07-06T04:12:57.632Z,3.72
2018-07-06T04:15:37.897Z,3.87
2018-07-06T04:18:18.292Z,4.97
2018-07-06T04:20:58.437Z,4.03
2018-07-06T04:23:38.510Z,4.80
2018-07-06T04:26:18.660Z,4.10
2018-07-06T04:28:58.915Z,4.58
2018-07-06T04:31:39.212Z,4.47
2018-07-06T04:34:19.407Z,4.62
2018-07-06T04:36:59.556Z,3.95
2018-07-06T04:39:40.779Z,4.42
2018-07-06T04:42:21.170Z,4.20
2018-07-06T04:45:01.379Z,4.37
2018-07-06T04:47:41.668Z,4.33
2018-07-06T04:50:21.856Z,5.00
2018-07-06T04:53:01.924Z,4.55
2018-07-06T04:55:42.114Z,4.28
2018-07-06T04:58:22.340Z,4.40
2018-07-06T05:01:02.576Z,4.40
2018-07-06T05:03:42.856Z,4.33
2018-07-06T05:06:23.255Z,4.20
2018-07-06T05:09:04.584Z,4.80
2018-07-06T05:11:44.927Z,4.80
2018-07-06T05:14:25.260Z,5.25
2018-07-06T05:17:05.589Z,4.20
2018-07-06T05:19:45.921Z,4.50
2018-07-06T05:22:26.192Z,4.12
2018-07-06T05:25:06.481Z,5.05
2018-07-06T05:27:46.845Z,4.67
2018-07-06T05:30:27.148Z,4.53
2018-07-06T05:33:07.405Z,5.25
2018-07-06T05:35:47.632Z,4.92
2018-07-06T05:38:28.269Z,4.75
2018-07-06T05:41:08.606Z,5.20
2018-07-06T05:43:48.816Z,4.87
2018-07-06T05:46:28.963Z,3.98
2018-07-06T05:49:09.221Z,5.00
2018-07-06T05:51:49.470Z,5.03
2018-07-06T05:54:29.637Z,4.65
2018-07-06T05:57:09.752Z,4.78
2018-07-06T05:59:50.011Z,5.22
2018-07-06T06:02:30.169Z,5.33
2018-07-06T06:05:10.405Z,5.25
2018-07-06T06:07:38.369Z,4.83
2018-07-06T06:10:07.389Z,4.37
2018-07-06T06:12:36.456Z,5.67
2018-07-06T06:15:05.485Z,4.08
2018-07-06T06:17:34.528Z,4.75
2018-07-06T06:20:03.632Z,4.37
2018-07-06T06:22:32.758Z,4.80
2018-07-06T06:25:01.785Z,4.53
2018-07-06T06:27:30.853Z,5.00
2018-07-06T06:29:59.909Z,4.97
2018-07-06T06:32:29.017Z,5.20
2018-07-06T06:34:58.093Z,5.08
2018-07-06T06:37:26.849Z,4.53
2018-07-06T06:39:55.896Z,4.42
2018-07-06T06:42:24.999Z,4.65
2018-07-06T06:44:54.055Z,4.90
2018-07-06T06:47:23.146Z,4.58
2018-07-06T06:49:52.882Z,4.78
2018-07-06T06:52:22.035Z,5.65
2018-07-06T06:54:51.279Z,5.25
2018-07-06T06:57:20.495Z,5.03
2018-07-06T06:59:49.902Z,5.10
2018-07-06T07:02:19.332Z,5.00
2018-07-06T07:04:49.009Z,5.10
2018-07-06T07:07:19.087Z,5.28
2018-07-06T07:09:48.551Z,5.37
2018-07-06T07:12:18.056Z,5.53
2018-07-06T07:14:47.669Z,4.72
2018-07-06T07:17:17.566Z,5.08
2018-07-06T07:19:47.124Z,5.28
2018-07-06T07:22:17.675Z,5.87
2018-07-06T07:24:47.579Z,5.42
2018-07-06T07:27:17.800Z,4.50
2018-07-06T07:29:47.742Z,5.10
2018-07-06T07:32:19.000Z,4.75
2018-07-06T07:34:48.124Z,6.17
2018-07-06T07:37:17.277Z,4.77
2018-07-06T07:39:46.396Z,5.05
2018-07-06T07:42:16.433Z,5.45
2018-07-06T07:44:45.567Z,5.35
2018-07-06T07:47:14.440Z,6.05
2018-07-06T07:49:43.914Z,5.60
2018-07-06T07:52:24.119Z,5.58
2018-07-06T07:54:55.172Z,5.80
2018-07-06T07:57:24.600Z,5.67
2018-07-06T07:59:55.086Z,4.60
2018-07-06T08:02:24.174Z,5.17
2018-07-06T08:04:54.226Z,6.10
2018-07-06T08:07:23.361Z,5.97
2018-07-06T08:09:52.517Z,5.00
2018-07-06T08:12:23.310Z,6.10
2018-07-06T08:14:53.978Z,7.23
2018-07-06T08:17:23.072Z,5.77
2018-07-06T08:19:52.104Z,5.23
2018-07-06T08:22:21.144Z,5.50
2018-07-06T08:24:50.242Z,5.27
2018-07-06T08:27:19.253Z,6.20
2018-07-06T08:29:48.557Z,5.80
2018-07-06T08:32:19.224Z,6.23
2018-07-06T08:34:59.659Z,6.00
2018-07-06T08:37:48.785Z,5.30
2018-07-06T08:40:18.370Z,6.20
2018-07-06T08:42:49.612Z,6.37
2018-07-06T08:45:18.661Z,6.20
2018-07-06T08:47:48.317Z,5.80
2018-07-06T08:50:17.551Z,6.33
2018-07-06T08:52:47.779Z,6.60
2018-07-06T08:55:17.204Z,5.07
2018-07-06T08:57:47.306Z,5.13
2018-07-06T09:00:16.625Z,5.70
2018-07-06T09:02:45.893Z,5.53
2018-07-06T09:05:15.117Z,6.20
2018-07-06T09:07:44.239Z,5.80
2018-07-06T09:10:13.616Z,5.10
2018-07-06T09:12:42.480Z,5.47
2018-07-06T09:15:11.552Z,5.73
2018-07-06T09:17:40.662Z,6.00
2018-07-06T09:20:09.886Z,5.30
2018-07-06T09:22:38.813Z,6.27
2018-07-06T09:25:08.521Z,5.60
2018-07-06T09:27:37.537Z,4.93
2018-07-06T09:30:06.602Z,5.60
2018-07-06T09:32:35.671Z,5.27
2018-07-06T09:35:04.775Z,5.37
2018-07-06T09:37:33.848Z,5.57
2018-07-06T09:40:02.893Z,4.57
2018-07-06T09:42:31.953Z,5.20
2018-07-06T09:45:01.088Z,5.10
2018-07-06T09:47:30.119Z,4.60
2018-07-06T09:49:59.176Z,4.40
2018-07-06T09:52:28.197Z,3.53
2018-07-06T09:54:57.239Z,4.40
2018-07-06T09:57:26.288Z,3.80
2018-07-06T09:59:55.457Z,3.90
2018-07-06T10:02:24.477Z,3.93
2018-07-06T10:04:53.544Z,3.97
2018-07-06T10:07:22.738Z,4.30
2018-07-06T10:09:51.964Z,4.17
2018-07-06T10:12:21.118Z,3.57
2018-07-06T10:14:50.196Z,3.63
2018-07-06T10:17:19.398Z,3.90
2018-07-06T10:19:48.524Z,4.43
2018-07-06T10:22:17.631Z,3.70
2018-07-06T10:24:46.800Z,3.90
2018-07-06T10:27:15.953Z,3.97
2018-07-06T10:29:57.662Z,4.57
2018-07-06T10:32:28.747Z,4.70
2018-07-06T10:34:58.528Z,4.00
2018-07-06T10:37:27.972Z,4.13
2018-07-06T10:39:57.122Z,3.60
2018-07-06T10:42:26.180Z,3.73
2018-07-06T10:44:55.309Z,3.60
2018-07-06T10:47:24.435Z,3.63
2018-07-06T10:49:53.496Z,3.70
2018-07-06T10:52:22.804Z,3.60
2018-07-06T10:54:52.083Z,3.90
2018-07-06T10:57:21.112Z,3.97
2018-07-06T10:59:50.535Z,3.37
2018-07-06T11:02:19.659Z,3.40
2018-07-06T11:04:48.705Z,4.13
2018-07-06T11:07:17.773Z,3.60
2018-07-06T11:09:47.052Z,3.93
2018-07-06T11:12:16.239Z,3.50
2018-07-06T11:14:45.441Z,3.40
2018-07-06T11:17:14.752Z,3.50
2018-07-06T11:19:43.843Z,4.27
2018-07-06T11:22:13.184Z,3.37
2018-07-06T11:24:42.268Z,3.43
2018-07-06T11:27:11.343Z,3.40
2018-07-06T11:29:41.032Z,3.40
2018-07-06T11:32:10.471Z,3.33
2018-07-06T11:34:39.532Z,4.07
2018-07-06T11:37:08.618Z,3.47
2018-07-06T11:39:37.754Z,3.07
2018-07-06T11:42:06.914Z,2.70
2018-07-06T11:44:36.016Z,2.60
2018-07-06T11:47:05.168Z,2.90
2018-07-06T11:49:34.220Z,3.13
2018-07-06T11:52:03.376Z,3.43
2018-07-06T11:54:32.405Z,2.87
2018-07-06T11:57:01.478Z,3.10
2018-07-06T11:59:30.517Z,3.10
2018-07-06T12:01:59.644Z,3.30
2018-07-06T12:04:28.688Z,2.80
2018-07-06T12:06:57.774Z,2.47
2018-07-06T12:09:26.817Z,3.10
2018-07-06T12:11:55.873Z,3.33
2018-07-06T12:14:24.963Z,3.30
2018-07-06T12:16:54.053Z,2.77
2018-07-06T12:19:23.135Z,2.60
2018-07-06T12:21:52.375Z,2.20
2018-07-06T12:24:21.429Z,2.87
2018-07-06T12:26:50.493Z,1.93
2018-07-06T12:29:19.573Z,2.30
2018-07-06T12:31:48.628Z,2.70
2018-07-06T12:34:17.691Z,1.97
2018-07-06T12:36:46.707Z,2.63
2018-07-06T12:39:15.776Z,2.37
2018-07-06T12:41:44.824Z,2.90
2018-07-06T12:44:13.899Z,2.53
2018-07-06T12:46:42.952Z,2.23
2018-07-06T12:49:12.009Z,2.90
2018-07-06T12:51:41.071Z,2.70
2018-07-06T12:54:11.797Z,3.43
2018-07-06T12:56:41.041Z,3.10
2018-07-06T12:59:11.005Z,3.07
2018-07-06T13:01:40.068Z,3.20
2018-07-06T13:04:09.193Z,3.00
2018-07-06T13:06:38.284Z,2.63
2018-07-06T13:09:07.788Z,2.50
2018-07-06T13:11:36.844Z,2.90
2018-07-06T13:14:05.980Z,3.00
2018-07-06T13:16:35.080Z,2.47
2018-07-06T13:19:04.190Z,3.37
2018-07-06T13:21:33.258Z,2.60
2018-07-06T13:24:02.344Z,2.67
2018-07-06T13:26:31.110Z,3.13
2018-07-06T13:29:00.151Z,2.03
2018-07-06T13:31:29.159Z,2.37
2018-07-06T13:33:58.310Z,2.40
2018-07-06T13:36:27.274Z,2.03
2018-07-06T13:38:56.341Z,2.17
2018-07-06T13:41:25.452Z,2.60
2018-07-06T13:43:54.551Z,2.10
2018-07-06T13:46:23.741Z,2.60
2018-07-06T13:48:52.819Z,2.80
2018-07-06T13:51:21.854Z,2.53
2018-07-06T13:53:51.471Z,2.00
2018-07-06T13:56:20.508Z,2.40
2018-07-06T13:58:49.560Z,2.43
2018-07-06T14:01:18.749Z,2.87
2018-07-06T14:03:47.772Z,2.30
2018-07-06T14:06:16.516Z,2.63
2018-07-06T14:08:45.484Z,2.10
2018-07-06T14:11:14.691Z,1.97
2018-07-06T14:13:43.783Z,2.10
2018-07-06T14:16:12.820Z,1.87
2018-07-06T14:18:41.912Z,2.60
2018-07-06T14:21:10.951Z,2.43
2018-07-06T14:23:39.979Z,1.70
2018-07-06T14:26:09.100Z,2.00
2018-07-06T14:28:38.220Z,2.10
2018-07-06T14:31:07.909Z,1.80
2018-07-06T14:33:36.960Z,2.17
2018-07-06T14:36:06.118Z,2.70
2018-07-06T14:38:35.222Z,2.73
2018-07-06T14:41:04.335Z,2.20
2018-07-06T14:43:33.556Z,1.70
2018-07-06T14:46:02.723Z,2.70
2018-07-06T14:48:31.768Z,3.40
2018-07-06T14:51:00.820Z,4.70
2018-07-06T14:53:30.158Z,3.37
2018-07-06T14:55:59.292Z,3.30
2018-07-06T14:58:28.409Z,3.10
2018-07-06T15:00:57.496Z,3.27
2018-07-06T15:03:26.657Z,2.70
2018-07-06T15:05:55.726Z,3.20
2018-07-06T15:08:24.822Z,2.83
2018-07-06T15:10:54.097Z,2.37
2018-07-06T15:13:23.266Z,2.83
2018-07-06T15:15:52.296Z,3.20
2018-07-06T15:18:21.434Z,2.83
2018-07-06T15:20:50.669Z,2.43
2018-07-06T15:23:19.965Z,3.23
2018-07-06T15:25:49.118Z,3.20
2018-07-06T15:28:18.296Z,2.40
2018-07-06T15:30:47.601Z,2.00
2018-07-06T15:33:16.740Z,2.03
2018-07-06T15:35:45.556Z,2.10
2018-07-06T15:38:14.573Z,2.33
2018-07-06T15:40:43.655Z,2.37
2018-07-06T15:43:13.336Z,2.17
2018-07-06T15:45:42.436Z,2.17
2018-07-06T15:48:11.887Z,2.00
2018-07-06T15:50:41.111Z,2.73
2018-07-06T15:53:10.648Z,2.10
2018-07-06T15:55:39.720Z,2.57
2018-07-06T15:58:08.828Z,1.77
2018-07-06T16:00:37.540Z,1.70
2018-07-06T16:03:06.616Z,2.17
2018-07-06T16:05:35.678Z,3.00
2018-07-06T16:08:04.898Z,2.40
2018-07-06T16:10:33.980Z,2.23
2018-07-06T16:13:03.092Z,2.40
2018-07-06T16:15:32.331Z,2.10
2018-07-06T16:18:01.453Z,1.67
2018-07-06T16:20:30.600Z,1.80
2018-07-06T16:22:59.820Z,1.70
2018-07-06T16:25:28.947Z,2.13
2018-07-06T16:27:58.133Z,2.33
2018-07-06T16:30:27.308Z,2.00
2018-07-06T16:32:56.329Z,1.87
2018-07-06T16:35:25.421Z,2.20
2018-07-06T16:37:54.477Z,2.03
2018-07-06T16:40:23.620Z,2.97
2018-07-06T16:42:52.660Z,2.80
2018-07-06T16:45:21.804Z,1.80
2018-07-06T16:47:50.878Z,1.93
2018-07-06T16:50:19.944Z,2.07
2018-07-06T16:52:49.094Z,2.63
2018-07-06T16:55:18.210Z,1.80
2018-07-06T16:57:47.285Z,2.47
2018-07-06T17:00:16.885Z,2.40
2018-07-06T17:02:46.063Z,2.20
2018-07-06T17:05:15.128Z,2.83
2018-07-06T17:07:44.204Z,2.00
2018-07-06T17:10:13.301Z,2.13
2018-07-06T17:12:42.360Z,2.77
2018-07-06T17:15:11.483Z,2.30
2018-07-06T17:17:40.672Z,2.40
2018-07-06T17:20:09.792Z,1.80
2018-07-06T17:22:38.921Z,3.40
2018-07-06T17:25:08.014Z,2.00
2018-07-06T17:27:37.062Z,2.77
2018-07-06T17:30:06.228Z,2.60
2018-07-06T17:32:35.285Z,2.40
2018-07-06T17:35:04.396Z,3.20
2018-07-06T17:37:33.456Z,2.40
2018-07-06T17:40:02.616Z,2.87
2018-07-06T17:42:31.685Z,3.63
2018-07-06T17:45:00.782Z,3.07
2018-07-06T17:47:29.916Z,3.10
2018-07-06T17:49:59.035Z,4.30
2018-07-06T17:52:28.144Z,3.27
2018-07-06T17:54:57.259Z,3.40
2018-07-06T17:57:26.485Z,3.93
2018-07-06T17:59:55.523Z,3.70
2018-07-06T18:02:24.602Z,3.87
2018-07-06T18:04:53.682Z,4.60
2018-07-06T18:07:22.787Z,3.03
2018-07-06T18:09:51.800Z,3.13
2018-07-06T18:12:20.924Z,3.70
2018-07-06T18:14:50.046Z,3.60
2018-07-06T18:17:19.172Z,2.77
2018-07-06T18:19:48.346Z,3.00
2018-07-06T18:22:17.492Z,2.73
2018-07-06T18:24:46.583Z,2.77
2018-07-06T18:27:15.652Z,3.17
2018-07-06T18:29:44.920Z,2.40
2018-07-06T18:32:14.061Z,3.27
2018-07-06T18:34:43.180Z,3.20
2018-07-06T18:37:12.268Z,2.90
2018-07-06T18:39:41.626Z,2.40
2018-07-06T18:42:10.776Z,3.40
2018-07-06T18:44:39.929Z,3.13
2018-07-06T18:47:09.164Z,2.83
2018-07-06T18:49:38.331Z,2.93
2018-07-06T18:52:07.476Z,2.83
2018-07-06T18:54:36.586Z,3.00
2018-07-06T18:57:05.760Z,2.75
2018-07-06T18:59:34.887Z,3.33
2018-07-06T19:02:04.185Z,2.50
2018-07-06T19:04:33.231Z,2.23
2018-07-06T19:07:02.368Z,2.35
2018-07-06T19:09:31.411Z,3.52
2018-07-06T19:12:00.609Z,3.40
2018-07-06T19:14:30.053Z,2.95
2018-07-06T19:16:59.266Z,3.37
2018-07-06T19:19:28.646Z,2.80
2018-07-06T19:21:57.917Z,2.87
2018-07-06T19:24:27.089Z,3.30
2018-07-06T19:26:56.257Z,3.40
2018-07-06T19:29:25.404Z,3.30
2018-07-06T19:31:54.645Z,3.45
2018-07-06T19:34:23.845Z,2.47
2018-07-06T19:36:53.069Z,3.20
2018-07-06T19:39:22.327Z,2.05
2018-07-06T19:41:51.630Z,2.95
2018-07-06T19:44:21.023Z,3.08
2018-07-06T19:46:50.023Z,2.40
2018-07-06T19:49:19.021Z,3.12
2018-07-06T19:51:48.050Z,3.30
2018-07-06T19:54:17.132Z,2.85
2018-07-06T19:56:46.225Z,3.10
2018-07-06T19:59:15.271Z,2.33
2018-07-06T20:01:44.357Z,3.30
2018-07-06T20:04:13.448Z,2.83
2018-07-06T20:06:42.640Z,4.15
2018-07-06T20:09:11.752Z,2.85
2018-07-06T20:11:40.853Z,2.95
2018-07-06T20:14:09.917Z,4.30
2018-07-06T20:16:39.031Z,2.80
2018-07-06T20:19:08.328Z,2.70
2018-07-06T20:21:37.566Z,3.92
2018-07-06T20:24:06.724Z,2.35
2018-07-06T20:26:35.837Z,3.35
2018-07-06T20:29:04.982Z,2.40
2018-07-06T20:31:34.044Z,3.92
2018-07-06T20:34:02.874Z,3.25
2018-07-06T20:36:32.105Z,2.67
2018-07-06T20:39:01.350Z,2.98
2018-07-06T20:41:30.568Z,2.62
2018-07-06T20:43:59.621Z,4.70
2018-07-06T20:46:28.403Z,3.40
2018-07-06T20:48:57.064Z,2.47
2018-07-06T20:51:26.194Z,4.53
2018-07-06T20:53:55.598Z,3.20
2018-07-06T20:56:24.724Z,15.68
2018-07-06T20:58:53.760Z,4.50
2018-07-06T21:01:22.887Z,3.12
2018-07-06T21:03:51.637Z,3.08
2018-07-06T21:06:20.616Z,3.27
2018-07-06T21:08:49.762Z,3.72
2018-07-06T21:11:18.836Z,3.37
2018-07-06T21:13:47.948Z,3.85
2018-07-06T21:16:22.995Z,3.33
2018-07-06T21:18:51.867Z,3.08
2018-07-06T21:21:20.892Z,4.55
2018-07-06T21:23:49.944Z,4.10
2018-07-06T21:26:19.023Z,4.00
2018-07-06T21:28:48.094Z,4.10
2018-07-06T21:31:17.191Z,3.40
2018-07-06T21:33:46.525Z,4.67
2018-07-06T21:36:15.617Z,4.60
2018-07-06T21:38:44.670Z,3.83
2018-07-06T21:41:13.793Z,3.80
2018-07-06T21:43:42.864Z,3.72
2018-07-06T21:46:11.950Z,3.58
2018-07-06T21:48:41.042Z,4.05
2018-07-06T21:51:10.134Z,4.90
2018-07-06T21:53:39.172Z,4.37
2018-07-06T21:56:08.332Z,3.98
2018-07-06T21:58:37.425Z,3.72
2018-07-06T22:01:06.541Z,5.72
2018-07-06T22:03:35.624Z,6.80
2018-07-06T22:06:04.724Z,4.72
2018-07-06T22:08:33.869Z,4.12
2018-07-06T22:11:02.913Z,3.80
2018-07-06T22:13:32.025Z,3.40
2018-07-06T22:16:01.161Z,3.92
2018-07-06T22:18:30.372Z,3.90
2018-07-06T22:20:59.543Z,3.90
2018-07-06T22:23:28.625Z,3.80
2018-07-06T22:25:57.760Z,3.77
2018-07-06T22:28:27.782Z,3.80
2018-07-06T22:30:56.866Z,4.62
2018-07-06T22:33:26.025Z,4.35
2018-07-06T22:35:55.043Z,4.45
2018-07-06T22:38:24.099Z,4.28
2018-07-06T22:40:53.165Z,3.25
2018-07-06T22:43:22.324Z,5.00
2018-07-06T22:45:51.412Z,4.45
2018-07-06T22:48:20.516Z,3.72
2018-07-06T22:50:49.585Z,4.03
2018-07-06T22:53:18.692Z,4.37
2018-07-06T22:55:47.744Z,3.52
2018-07-06T22:58:16.804Z,4.45
2018-07-06T23:00:45.908Z,4.75
2018-07-06T23:03:14.950Z,4.25
2018-07-06T23:05:44.058Z,4.45
2018-07-06T23:08:13.113Z,4.95
2018-07-06T23:10:42.296Z,3.80
2018-07-06T23:13:11.377Z,6.20
2018-07-06T23:15:40.478Z,5.40
2018-07-06T23:18:09.552Z,3.77
2018-07-06T23:20:38.644Z,5.25
2018-07-06T23:23:09.551Z,3.77
2018-07-06T23:25:41.952Z,4.17
2018-07-06T23:28:11.108Z,4.45
2018-07-06T23:30:40.256Z,4.25
2018-07-06T23:33:10.080Z,5.25
2018-07-06T23:35:39.174Z,4.12
2018-07-06T23:38:08.460Z,3.92
2018-07-06T23:40:37.774Z,4.40
2018-07-06T23:43:06.832Z,4.40
2018-07-06T23:45:35.877Z,4.53
2018-07-06T23:48:05.011Z,4.65
2018-07-06T23:50:34.074Z,4.67
2018-07-06T23:53:03.113Z,5.35
2018-07-06T23:55:32.224Z,4.35
2018-07-06T23:58:01.311Z,5.30
